CMA CGM Homere — MQBL6 — position and weather

sailwx.info

Track history (hours):
 
Tides and Currents Weather Stations Pressure Air Temp Water Temp Dewpoint Dewpoint Depression Visibility Wind Speed Wind Dir Waves Ship Positions

CMA CGM Homere

Last reported at 2016-Jul-26 19:33 UTC. Time now 2016-Jul-26 19:50 UTC.
Position N 59°53' E 030°12'.

Length 170 m; draft 7.8 m.

Type: Ship (hazmat cat A). MMSI: 235052314.

Date/timePositionNaut miles runAvg speedWind from/ knotsBaromVisibWave heightAir tempDewpointWater temp
2016-Jul-26 19:33N 59°53' E 030°12'0 0.0
2016-Jul-26 18:32N 59°53' E 030°12'0 0.0
2016-Jul-26 17:32N 59°53' E 030°12'0 0.0
2016-Jul-26 16:32N 59°53' E 030°12'0 0.0
2016-Jul-26 15:32N 59°53' E 030°12'0 0.0
2016-Jul-26 14:32N 59°53' E 030°12'0 0.0
2016-Jul-26 13:32N 59°53' E 030°12'0 0.0
2016-Jul-26 12:32N 59°53' E 030°12'0 0.0
2016-Jul-26 11:32N 59°53' E 030°12'0 0.0
2016-Jul-26 10:32N 59°53' E 030°12'0 0.0
2016-Jul-26 09:32N 59°53' E 030°12'0 0.0
2016-Jul-26 08:32N 59°53' E 030°12'0 0.0
2016-Jul-26 07:32N 59°53' E 030°12'0 0.0
2016-Jul-26 06:32N 59°53' E 030°12'0 0.0
2016-Jul-26 05:32N 59°53' E 030°12'0 0.0
2016-Jul-26 04:32N 59°53' E 030°12'0 0.0
2016-Jul-26 03:29N 59°53' E 030°12'1 0.6
2016-Jul-26 02:33N 59°53' E 030°11'10 9.9
2016-Jul-26 01:33N 59°57' E 029°53'1111.3
2016-Jul-26 00:33N 60°01' E 029°32'8 7.1
2016-Jul-25 23:29N 60°06' E 029°20'0 0.1
2016-Jul-25 22:29N 60°06' E 029°20'0 0.0
2016-Jul-25 21:29N 60°06' E 029°20'0 0.0
2016-Jul-25 20:29N 60°06' E 029°20'0 0.0
2016-Jul-25 19:29N 60°06' E 029°20'0 0.0
2016-Jul-25 18:29N 60°06' E 029°20'0 0.0
2016-Jul-25 17:29N 60°06' E 029°20'0 0.0
2016-Jul-25 16:32N 60°06' E 029°20'0 0.1
2016-Jul-25 15:32N 60°06' E 029°20'4 4.3
2016-Jul-25 14:31N 60°02' E 029°18'1615.0
2016-Jul-25 13:27N 60°02' E 028°47'1617.4
2016-Jul-25 12:33N 60°07' E 028°17'1817.8
2016-Jul-25 11:33N 60°09' E 027°42'1818.2
2016-Jul-25 10:33N 59°60' E 027°10'1817.6
2016-Jul-25 09:33N 59°59' E 026°35'5918.3
2016-Jul-25 06:20N 59°46' E 024°40'1418.0
2016-Jul-25 05:32N 59°42' E 024°13'1818.0
2016-Jul-25 04:33N 59°36' E 023°40'1818.1
2016-Jul-25 03:33N 59°30' E 023°06'1918.0
2016-Jul-25 02:30N 59°23' E 022°32'32017.8
2016-Jul-24 08:33N 55°37' E 015°29'1818.5
2016-Jul-24 07:33N 55°29' E 014°60'1818.3
2016-Jul-24 06:33N 55°19' E 014°33'1818.3
2016-Jul-24 05:33N 55°05' E 014°12'1817.8
2016-Jul-24 04:33N 54°57' E 013°45'1818.1
2016-Jul-24 03:33N 54°51' E 013°15'1817.8
2016-Jul-24 02:33N 54°45' E 012°46'1717.2
2016-Jul-24 01:33N 54°36' E 012°21'1615.8
2016-Jul-24 00:33N 54°24' E 012°02'1716.9
2016-Jul-23 23:33N 54°28' E 011°34'1717.0
2016-Jul-23 22:33N 54°36' E 011°08'1514.8
2016-Jul-23 21:33N 54°47' E 010°52'1515.5
2016-Jul-23 20:33N 55°02' E 011°01'3215.8
2016-Jul-23 18:32N 55°33' E 010°50'1616.4
2016-Jul-23 17:32N 55°50' E 010°49'1717.1
2016-Jul-23 16:33N 56°03' E 011°06'1717.1
2016-Jul-23 15:33N 56°17' E 011°23'1817.8
2016-Jul-23 14:33N 56°33' E 011°39'1717.1
2016-Jul-23 13:33N 56°49' E 011°48'1818.5
2016-Jul-23 12:33N 57°07' E 011°37'1818.2
2016-Jul-23 11:33N 57°24' E 011°25'1817.9
2016-Jul-23 10:33N 57°38' E 011°04'1817.6
2016-Jul-23 09:33N 57°47' E 010°36'1818.4
2016-Jul-23 08:33N 57°43' E 010°03'1918.4
2016-Jul-23 07:33N 57°35' E 009°31'14017.3
2016-Jul-22 23:27N 55°47' E 006°48'1617.6
2016-Jul-22 22:33N 55°33' E 006°34'2017.6
2016-Jul-22 21:25N 55°16' E 006°16'1916.8
2016-Jul-22 20:16N 54°59' E 006°00'1917.9
2016-Jul-22 19:11N 54°42' E 005°43'1318.0
2016-Jul-22 18:28N 54°31' E 005°31'1617.4
2016-Jul-22 17:33N 54°17' E 005°18'1717.3
2016-Jul-22 16:33N 54°02' E 005°05'1717.4
2016-Jul-22 15:33N 53°46' E 004°54'1717.2
2016-Jul-22 14:33N 53°30' E 004°43'3516.9
2016-Jul-22 12:30N 52°58' E 004°18'1516.5
2016-Jul-22 11:33N 52°45' E 004°07'1616.3
2016-Jul-22 10:33N 52°30' E 003°54'1616.3
2016-Jul-22 09:33N 52°14' E 003°54'1110.7
2016-Jul-22 08:33N 52°04' E 003°59'1 0.7
2016-Jul-22 07:34N 52°03' E 003°59'5 1.5
2016-Jul-22 04:31N 51°59' E 004°02'0 0.0
2016-Jul-22 03:31N 51°59' E 004°02'0 0.0
2016-Jul-22 02:31N 51°59' E 004°02'0 0.0
2016-Jul-22 01:31N 51°59' E 004°02'0 0.0
2016-Jul-22 00:31N 51°59' E 004°02'0 0.0
2016-Jul-21 23:31N 51°59' E 004°02'0 0.0
2016-Jul-21 22:31N 51°59' E 004°02'0 0.0
2016-Jul-21 21:31N 51°59' E 004°02'0 0.0
2016-Jul-21 20:33N 51°59' E 004°02'2 2.4
2016-Jul-21 19:33N 51°57' E 004°05'1 0.9
2016-Jul-21 18:33N 51°57' E 004°04'0 0.0
2016-Jul-21 17:33N 51°57' E 004°04'0 0.0
2016-Jul-21 16:33N 51°57' E 004°04'0 0.0
2016-Jul-21 15:33N 51°57' E 004°04'0 0.0
2016-Jul-21 14:33N 51°57' E 004°04'0 0.0
2016-Jul-21 13:33N 51°57' E 004°04'0 0.0
2016-Jul-21 12:33N 51°57' E 004°04'0 0.0
2016-Jul-21 11:33N 51°57' E 004°04'0 0.0
2016-Jul-21 10:33N 51°57' E 004°04'0 0.0
2016-Jul-21 09:33N 51°57' E 004°04'0 0.0
2016-Jul-21 08:30N 51°57' E 004°04'0 0.0
2016-Jul-21 07:33N 51°57' E 004°04'0 0.0
2016-Jul-21 06:33N 51°57' E 004°04'0 0.2
2016-Jul-21 05:33N 51°57' E 004°04'6 6.4
2016-Jul-21 04:33N 51°60' E 003°55'5 5.0
2016-Jul-21 03:34N 51°57' E 003°47'0 0.0
2016-Jul-21 02:29N 51°57' E 003°47'0 0.0
2016-Jul-21 01:32N 51°57' E 003°47'0 0.0
2016-Jul-21 00:29N 51°57' E 003°47'0 0.2
2016-Jul-20 23:29N 51°57' E 003°47'0 0.1
2016-Jul-20 22:32N 51°57' E 003°47'0 0.0
2016-Jul-20 21:32N 51°57' E 003°47'0 0.1
2016-Jul-20 20:32N 51°57' E 003°47'0 0.2
2016-Jul-20 19:32N 51°57' E 003°48'0 0.0
2016-Jul-20 18:32N 51°57' E 003°48'0 0.0
2016-Jul-20 17:32N 51°57' E 003°48'0 0.0
2016-Jul-20 16:32N 51°57' E 003°48'0 0.0
2016-Jul-20 15:33N 51°57' E 003°48'9 9.4
2016-Jul-20 14:34N 51°57' E 003°32'1615.4
2016-Jul-20 13:33N 51°44' E 003°17'1312.7
2016-Jul-20 12:34N 51°33' E 003°25'10 9.9
2016-Jul-20 11:33N 51°26' E 003°37'10 9.7
2016-Jul-20 10:33N 51°21' E 003°50'9 8.8
2016-Jul-20 09:34N 51°25' E 004°02'10 9.5
2016-Jul-20 08:33N 51°21' E 004°16'3 3.1
2016-Jul-20 07:32N 51°18' E 004°16'0 0.0
2016-Jul-20 06:23N 51°18' E 004°16'0 0.0
2016-Jul-20 05:32N 51°18' E 004°16'0 0.0
2016-Jul-20 04:32N 51°18' E 004°16'0 0.0
2016-Jul-20 03:32N 51°18' E 004°16'0 0.0
2016-Jul-20 02:32N 51°18' E 004°16'0 0.0
2016-Jul-20 01:29N 51°18' E 004°16'0 0.0
2016-Jul-20 00:32N 51°18' E 004°16'0 0.0
2016-Jul-19 23:32N 51°18' E 004°16'0 0.0
2016-Jul-19 22:23N 51°18' E 004°16'1 1.0
2016-Jul-19 21:33N 51°19' E 004°16'8 7.9
2016-Jul-19 20:34N 51°22' E 004°05'8 8.1
2016-Jul-19 19:34N 51°21' E 003°52'1110.7
2016-Jul-19 18:33N 51°26' E 003°37'1010.3
2016-Jul-19 17:33N 51°24' E 003°21'1414.1
2016-Jul-19 16:33N 51°23' E 002°58'1212.3
2016-Jul-19 15:33N 51°22' E 002°39'1312.7
2016-Jul-19 14:34N 51°19' E 002°19'1515.3
2016-Jul-19 13:34N 51°25' E 001°56'1414.4
2016-Jul-19 12:33N 51°29' E 001°34'9 9.3
2016-Jul-19 11:33N 51°29' E 001°19'1212.5
2016-Jul-19 10:33N 51°29' E 000°59'1212.4
2016-Jul-19 09:33N 51°30' E 000°39'9 9.0
2016-Jul-19 08:34N 51°27' E 000°25'3 3.4
2016-Jul-19 07:33N 51°28' E 000°20'0 0.0
2016-Jul-19 04:34N 51°28' E 000°20'0 0.0
2016-Jul-19 03:34N 51°28' E 000°20'0 0.0
2016-Jul-19 02:34N 51°28' E 000°20'1 1.0
2016-Jul-19 01:34N 51°27' E 000°21'9 8.5
2016-Jul-19 00:34N 51°30' E 000°34'1313.2
2016-Jul-18 23:33N 51°29' E 000°55'1515.3
2016-Jul-18 22:33N 51°29' E 001°19'1211.6
2016-Jul-18 21:33N 51°22' E 001°34'1313.5
2016-Jul-18 20:33N 51°09' E 001°41'1413.7
2016-Jul-18 19:33N 50°58' E 001°29'1515.3
2016-Jul-18 18:33N 50°44' E 001°20'1615.6
2016-Jul-18 17:33N 50°33' E 001°02'1616.1
2016-Jul-18 16:33N 50°28' E 000°38'1716.6
2016-Jul-18 15:33N 50°23' E 000°13'1716.7
2016-Jul-18 14:33N 50°18' W 000°12'1616.1
2016-Jul-18 13:33N 50°14' W 000°36'1615.6
2016-Jul-18 12:33N 50°11' W 000°60'1615.7
2016-Jul-18 11:33N 50°06' W 001°23'1616.4
2016-Jul-18 10:33N 50°02' W 001°48'1817.6
2016-Jul-18 09:33N 49°57' W 002°14'1918.5
2016-Jul-18 08:33N 49°52' W 002°42'1918.9
2016-Jul-18 07:33N 49°45' W 003°09'1918.7
2016-Jul-18 06:34N 49°36' W 003°34'3718.7
2016-Jul-18 04:33N 49°17' W 004°24'1918.8
2016-Jul-18 03:33N 49°08' W 004°49'1717.5
2016-Jul-18 02:33N 48°59' W 005°11'1817.9
2016-Jul-18 01:34N 48°48' W 005°34'1313.0
2016-Jul-18 00:33N 48°38' W 005°45'1312.9
2016-Jul-17 23:33N 48°26' W 005°55'1413.9
2016-Jul-17 22:33N 48°14' W 006°04'1717.4
2016-Jul-17 21:33N 47°59' W 006°16'26217.5
2016-Jul-17 06:33N 44°06' W 009°10'16816.8
2016-Jul-16 20:33N 41°20' W 009°50'1818.2
2016-Jul-16 19:34N 41°02' W 009°51'  
Track history (hours):
 
Tides and Currents Weather Stations Pressure Air Temp Water Temp Dewpoint Dewpoint Depression Visibility Wind Speed Wind Dir Waves Ship Positions

CMA CGM Homere

Last reported at 2016-Jul-26 19:33 UTC. Time now 2016-Jul-26 19:50 UTC.
Position N 59°53' E 030°12'.

Length 170 m; draft 7.8 m.

Type: Ship (hazmat cat A). MMSI: 235052314.

Date/timePositionNaut miles runAvg speedWind from/ knotsBaromVisibWave heightAir tempDewpointWater temp
2016-Jul-26 19:33N 59°53' E 030°12'0 0.0
2016-Jul-26 18:32N 59°53' E 030°12'0 0.0
2016-Jul-26 17:32N 59°53' E 030°12'0 0.0
2016-Jul-26 16:32N 59°53' E 030°12'0 0.0
2016-Jul-26 15:32N 59°53' E 030°12'0 0.0
2016-Jul-26 14:32N 59°53' E 030°12'0 0.0
2016-Jul-26 13:32N 59°53' E 030°12'0 0.0
2016-Jul-26 12:32N 59°53' E 030°12'0 0.0
2016-Jul-26 11:32N 59°53' E 030°12'0 0.0
2016-Jul-26 10:32N 59°53' E 030°12'0 0.0
2016-Jul-26 09:32N 59°53' E 030°12'0 0.0
2016-Jul-26 08:32N 59°53' E 030°12'0 0.0
2016-Jul-26 07:32N 59°53' E 030°12'0 0.0
2016-Jul-26 06:32N 59°53' E 030°12'0 0.0
2016-Jul-26 05:32N 59°53' E 030°12'0 0.0
2016-Jul-26 04:32N 59°53' E 030°12'0 0.0
2016-Jul-26 03:29N 59°53' E 030°12'1 0.6
2016-Jul-26 02:33N 59°53' E 030°11'10 9.9
2016-Jul-26 01:33N 59°57' E 029°53'1111.3
2016-Jul-26 00:33N 60°01' E 029°32'8 7.1
2016-Jul-25 23:29N 60°06' E 029°20'0 0.1
2016-Jul-25 22:29N 60°06' E 029°20'0 0.0
2016-Jul-25 21:29N 60°06' E 029°20'0 0.0
2016-Jul-25 20:29N 60°06' E 029°20'0 0.0
2016-Jul-25 19:29N 60°06' E 029°20'0 0.0
2016-Jul-25 18:29N 60°06' E 029°20'0 0.0
2016-Jul-25 17:29N 60°06' E 029°20'0 0.0
2016-Jul-25 16:32N 60°06' E 029°20'0 0.1
2016-Jul-25 15:32N 60°06' E 029°20'4 4.3
2016-Jul-25 14:31N 60°02' E 029°18'1615.0
2016-Jul-25 13:27N 60°02' E 028°47'1617.4
2016-Jul-25 12:33N 60°07' E 028°17'1817.8
2016-Jul-25 11:33N 60°09' E 027°42'1818.2
2016-Jul-25 10:33N 59°60' E 027°10'1817.6
2016-Jul-25 09:33N 59°59' E 026°35'5918.3
2016-Jul-25 06:20N 59°46' E 024°40'1418.0
2016-Jul-25 05:32N 59°42' E 024°13'1818.0
2016-Jul-25 04:33N 59°36' E 023°40'1818.1
2016-Jul-25 03:33N 59°30' E 023°06'1918.0
2016-Jul-25 02:30N 59°23' E 022°32'32017.8
2016-Jul-24 08:33N 55°37' E 015°29'1818.5
2016-Jul-24 07:33N 55°29' E 014°60'1818.3
2016-Jul-24 06:33N 55°19' E 014°33'1818.3
2016-Jul-24 05:33N 55°05' E 014°12'1817.8
2016-Jul-24 04:33N 54°57' E 013°45'1818.1
2016-Jul-24 03:33N 54°51' E 013°15'1817.8
2016-Jul-24 02:33N 54°45' E 012°46'1717.2
2016-Jul-24 01:33N 54°36' E 012°21'1615.8
2016-Jul-24 00:33N 54°24' E 012°02'1716.9
2016-Jul-23 23:33N 54°28' E 011°34'1717.0
2016-Jul-23 22:33N 54°36' E 011°08'1514.8
2016-Jul-23 21:33N 54°47' E 010°52'1515.5
2016-Jul-23 20:33N 55°02' E 011°01'3215.8
2016-Jul-23 18:32N 55°33' E 010°50'1616.4
2016-Jul-23 17:32N 55°50' E 010°49'1717.1
2016-Jul-23 16:33N 56°03' E 011°06'1717.1
2016-Jul-23 15:33N 56°17' E 011°23'1817.8
2016-Jul-23 14:33N 56°33' E 011°39'1717.1
2016-Jul-23 13:33N 56°49' E 011°48'1818.5
2016-Jul-23 12:33N 57°07' E 011°37'1818.2
2016-Jul-23 11:33N 57°24' E 011°25'1817.9
2016-Jul-23 10:33N 57°38' E 011°04'1817.6
2016-Jul-23 09:33N 57°47' E 010°36'1818.4
2016-Jul-23 08:33N 57°43' E 010°03'1918.4
2016-Jul-23 07:33N 57°35' E 009°31'14017.3
2016-Jul-22 23:27N 55°47' E 006°48'1617.6
2016-Jul-22 22:33N 55°33' E 006°34'2017.6
2016-Jul-22 21:25N 55°16' E 006°16'1916.8
2016-Jul-22 20:16N 54°59' E 006°00'1917.9
2016-Jul-22 19:11N 54°42' E 005°43'1318.0
2016-Jul-22 18:28N 54°31' E 005°31'1617.4
2016-Jul-22 17:33N 54°17' E 005°18'1717.3
2016-Jul-22 16:33N 54°02' E 005°05'1717.4
2016-Jul-22 15:33N 53°46' E 004°54'1717.2
2016-Jul-22 14:33N 53°30' E 004°43'3516.9
2016-Jul-22 12:30N 52°58' E 004°18'1516.5
2016-Jul-22 11:33N 52°45' E 004°07'1616.3
2016-Jul-22 10:33N 52°30' E 003°54'1616.3
2016-Jul-22 09:33N 52°14' E 003°54'1110.7
2016-Jul-22 08:33N 52°04' E 003°59'1 0.7
2016-Jul-22 07:34N 52°03' E 003°59'5 1.5
2016-Jul-22 04:31N 51°59' E 004°02'0 0.0
2016-Jul-22 03:31N 51°59' E 004°02'0 0.0
2016-Jul-22 02:31N 51°59' E 004°02'0 0.0
2016-Jul-22 01:31N 51°59' E 004°02'0 0.0
2016-Jul-22 00:31N 51°59' E 004°02'0 0.0
2016-Jul-21 23:31N 51°59' E 004°02'0 0.0
2016-Jul-21 22:31N 51°59' E 004°02'0 0.0
2016-Jul-21 21:31N 51°59' E 004°02'0 0.0
2016-Jul-21 20:33N 51°59' E 004°02'2 2.4
2016-Jul-21 19:33N 51°57' E 004°05'1 0.9
2016-Jul-21 18:33N 51°57' E 004°04'0 0.0
2016-Jul-21 17:33N 51°57' E 004°04'0 0.0
2016-Jul-21 16:33N 51°57' E 004°04'0 0.0
2016-Jul-21 15:33N 51°57' E 004°04'0 0.0
2016-Jul-21 14:33N 51°57' E 004°04'0 0.0
2016-Jul-21 13:33N 51°57' E 004°04'0 0.0
2016-Jul-21 12:33N 51°57' E 004°04'0 0.0
2016-Jul-21 11:33N 51°57' E 004°04'0 0.0
2016-Jul-21 10:33N 51°57' E 004°04'0 0.0
2016-Jul-21 09:33N 51°57' E 004°04'0 0.0
2016-Jul-21 08:30N 51°57' E 004°04'0 0.0
2016-Jul-21 07:33N 51°57' E 004°04'0 0.0
2016-Jul-21 06:33N 51°57' E 004°04'0 0.2
2016-Jul-21 05:33N 51°57' E 004°04'6 6.4
2016-Jul-21 04:33N 51°60' E 003°55'5 5.0
2016-Jul-21 03:34N 51°57' E 003°47'0 0.0
2016-Jul-21 02:29N 51°57' E 003°47'0 0.0
2016-Jul-21 01:32N 51°57' E 003°47'0 0.0
2016-Jul-21 00:29N 51°57' E 003°47'0 0.2
2016-Jul-20 23:29N 51°57' E 003°47'0 0.1
2016-Jul-20 22:32N 51°57' E 003°47'0 0.0
2016-Jul-20 21:32N 51°57' E 003°47'0 0.1
2016-Jul-20 20:32N 51°57' E 003°47'0 0.2
2016-Jul-20 19:32N 51°57' E 003°48'0 0.0
2016-Jul-20 18:32N 51°57' E 003°48'0 0.0
2016-Jul-20 17:32N 51°57' E 003°48'0 0.0
2016-Jul-20 16:32N 51°57' E 003°48'0 0.0
2016-Jul-20 15:33N 51°57' E 003°48'9 9.4
2016-Jul-20 14:34N 51°57' E 003°32'1615.4
2016-Jul-20 13:33N 51°44' E 003°17'1312.7
2016-Jul-20 12:34N 51°33' E 003°25'10 9.9
2016-Jul-20 11:33N 51°26' E 003°37'10 9.7
2016-Jul-20 10:33N 51°21' E 003°50'9 8.8
2016-Jul-20 09:34N 51°25' E 004°02'10 9.5
2016-Jul-20 08:33N 51°21' E 004°16'3 3.1
2016-Jul-20 07:32N 51°18' E 004°16'0 0.0
2016-Jul-20 06:23N 51°18' E 004°16'0 0.0
2016-Jul-20 05:32N 51°18' E 004°16'0 0.0
2016-Jul-20 04:32N 51°18' E 004°16'0 0.0
2016-Jul-20 03:32N 51°18' E 004°16'0 0.0
2016-Jul-20 02:32N 51°18' E 004°16'0 0.0
2016-Jul-20 01:29N 51°18' E 004°16'0 0.0
2016-Jul-20 00:32N 51°18' E 004°16'0 0.0
2016-Jul-19 23:32N 51°18' E 004°16'0 0.0
2016-Jul-19 22:23N 51°18' E 004°16'1 1.0
2016-Jul-19 21:33N 51°19' E 004°16'8 7.9
2016-Jul-19 20:34N 51°22' E 004°05'8 8.1
2016-Jul-19 19:34N 51°21' E 003°52'1110.7
2016-Jul-19 18:33N 51°26' E 003°37'1010.3
2016-Jul-19 17:33N 51°24' E 003°21'1414.1
2016-Jul-19 16:33N 51°23' E 002°58'1212.3
2016-Jul-19 15:33N 51°22' E 002°39'1312.7
2016-Jul-19 14:34N 51°19' E 002°19'1515.3
2016-Jul-19 13:34N 51°25' E 001°56'1414.4
2016-Jul-19 12:33N 51°29' E 001°34'9 9.3
2016-Jul-19 11:33N 51°29' E 001°19'1212.5
2016-Jul-19 10:33N 51°29' E 000°59'1212.4
2016-Jul-19 09:33N 51°30' E 000°39'9 9.0
2016-Jul-19 08:34N 51°27' E 000°25'3 3.4
2016-Jul-19 07:33N 51°28' E 000°20'0 0.0
2016-Jul-19 04:34N 51°28' E 000°20'0 0.0
2016-Jul-19 03:34N 51°28' E 000°20'0 0.0
2016-Jul-19 02:34N 51°28' E 000°20'1 1.0
2016-Jul-19 01:34N 51°27' E 000°21'9 8.5
2016-Jul-19 00:34N 51°30' E 000°34'1313.2
2016-Jul-18 23:33N 51°29' E 000°55'1515.3
2016-Jul-18 22:33N 51°29' E 001°19'1211.6
2016-Jul-18 21:33N 51°22' E 001°34'1313.5
2016-Jul-18 20:33N 51°09' E 001°41'1413.7
2016-Jul-18 19:33N 50°58' E 001°29'1515.3
2016-Jul-18 18:33N 50°44' E 001°20'1615.6
2016-Jul-18 17:33N 50°33' E 001°02'1616.1
2016-Jul-18 16:33N 50°28' E 000°38'1716.6
2016-Jul-18 15:33N 50°23' E 000°13'1716.7
2016-Jul-18 14:33N 50°18' W 000°12'1616.1
2016-Jul-18 13:33N 50°14' W 000°36'1615.6
2016-Jul-18 12:33N 50°11' W 000°60'1615.7
2016-Jul-18 11:33N 50°06' W 001°23'1616.4
2016-Jul-18 10:33N 50°02' W 001°48'1817.6
2016-Jul-18 09:33N 49°57' W 002°14'1918.5
2016-Jul-18 08:33N 49°52' W 002°42'1918.9
2016-Jul-18 07:33N 49°45' W 003°09'1918.7
2016-Jul-18 06:34N 49°36' W 003°34'3718.7
2016-Jul-18 04:33N 49°17' W 004°24'1918.8
2016-Jul-18 03:33N 49°08' W 004°49'1717.5
2016-Jul-18 02:33N 48°59' W 005°11'1817.9
2016-Jul-18 01:34N 48°48' W 005°34'1313.0
2016-Jul-18 00:33N 48°38' W 005°45'1312.9
2016-Jul-17 23:33N 48°26' W 005°55'1413.9
2016-Jul-17 22:33N 48°14' W 006°04'1717.4
2016-Jul-17 21:33N 47°59' W 006°16'26217.5
2016-Jul-17 06:33N 44°06' W 009°10'16816.8
2016-Jul-16 20:33N 41°20' W 009°50'1818.2
2016-Jul-16 19:34N 41°02' W 009°51'  

Dump ship's entire track history